Time;durP1;ratioP1;P1;durP2;ratioP2;P2;SDS_P1;SDS_P2;PMS_P1;PMS_P2;Temp;Humidity;BMP_temperature;BMP_pressure;BME280_temperature;BME280_humidity;BME280_pressure;Samples;Min_cycle;Max_cycle;Signal;HPM_P1;HPM_P2
2022/08/01 00:00:06;;;;;;;4.03;2.60;;;19.60;99.90;;;;;;4976585;28;20034;-69
2022/08/01 00:02:32;;;;;;;5.30;2.75;;;19.50;99.90;;;;;;4976736;28;20062;-70
2022/08/01 00:04:57;;;;;;;5.03;3.20;;;19.50;99.90;;;;;;4976396;28;20057;-69
2022/08/01 00:07:23;;;;;;;6.38;3.08;;;19.50;99.90;;;;;;4975355;28;20054;-69
2022/08/01 00:09:49;;;;;;;8.55;3.45;;;19.40;99.90;;;;;;4976610;28;20460;-69
2022/08/01 00:12:14;;;;;;;8.30;3.60;;;19.40;99.90;;;;;;4976396;28;20368;-67
2022/08/01 00:14:40;;;;;;;7.93;3.45;;;19.30;99.90;;;;;;4976526;28;20019;-68
2022/08/01 00:17:05;;;;;;;12.35;4.22;;;19.30;99.90;;;;;;4976556;28;20039;-69
2022/08/01 00:19:31;;;;;;;8.35;3.58;;;19.30;99.90;;;;;;4976424;28;20039;-68
2022/08/01 00:21:57;;;;;;;8.00;4.00;;;19.30;99.90;;;;;;4976379;28;20023;-68
2022/08/01 00:24:22;;;;;;;11.00;5.03;;;19.30;99.90;;;;;;4976393;28;20461;-68
2022/08/01 00:26:48;;;;;;;6.60;3.63;;;19.30;99.90;;;;;;4976272;28;20027;-69
2022/08/01 00:29:13;;;;;;;12.85;4.70;;;19.30;99.90;;;;;;4976277;28;20023;-67
2022/08/01 00:31:39;;;;;;;8.73;3.80;;;19.20;99.90;;;;;;4976256;28;20505;-67
2022/08/01 00:34:04;;;;;;;7.72;4.18;;;19.20;99.90;;;;;;4975954;28;20350;-67
2022/08/01 00:36:30;;;;;;;7.65;3.75;;;19.30;99.90;;;;;;4976207;28;20460;-70
2022/08/01 00:38:56;;;;;;;9.07;3.88;;;19.30;99.90;;;;;;4976187;28;20385;-70
2022/08/01 00:41:21;;;;;;;9.13;4.07;;;19.20;99.90;;;;;;4974734;28;20146;-67
2022/08/01 00:43:47;;;;;;;10.43;4.55;;;19.30;99.90;;;;;;4975854;28;20023;-67
2022/08/01 00:46:12;;;;;;;12.60;4.80;;;19.20;99.90;;;;;;4976086;28;20446;-68
2022/08/01 00:48:38;;;;;;;9.77;4.38;;;19.30;99.90;;;;;;4974559;28;20097;-68
2022/08/01 00:51:05;;;;;;;11.45;4.18;;;19.20;99.90;;;;;;4975750;28;20425;-68
2022/08/01 00:53:30;;;;;;;11.00;4.65;;;19.20;99.90;;;;;;4975761;28;20380;-70
2022/08/01 00:55:56;;;;;;;10.20;4.80;;;19.20;99.90;;;;;;4975940;28;20042;-68
2022/08/01 00:58:23;;;;;;;11.98;4.80;;;19.30;99.90;;;;;;4974530;28;20380;-70
2022/08/01 01:00:48;;;;;;;11.40;5.00;;;19.20;99.90;;;;;;4974041;28;20039;-69
2022/08/01 01:03:14;;;;;;;12.32;5.13;;;19.30;99.90;;;;;;4975843;28;20018;-70
2022/08/01 01:06:14;;;;;;;14.05;5.30;;;19.20;99.90;;;;;;4975546;28;20357;-69
2022/08/01 01:08:46;;;;;;;11.90;5.43;;;19.30;99.90;;;;;;4975296;28;20035;-70
2022/08/01 01:11:16;;;;;;;;;;;19.30;99.90;;;;;;4974536;28;20030;-70
2022/08/01 01:13:49;;;;;;;15.88;5.32;;;19.30;99.90;;;;;;4975870;28;19957;-69
2022/08/01 01:16:17;;;;;;;13.65;6.68;;;19.30;99.90;;;;;;4975517;28;20029;-68
2022/08/01 01:18:55;;;;;;;12.52;4.85;;;19.30;99.90;;;;;;4975315;28;20023;-68
2022/08/01 01:21:21;;;;;;;11.38;4.55;;;19.30;99.90;;;;;;4975339;28;20026;-69
2022/08/01 01:24:08;;;;;;;12.82;5.32;;;19.20;99.90;;;;;;4975473;28;20054;-69
2022/08/01 01:26:42;;;;;;;13.98;4.78;;;19.30;99.90;;;;;;4975234;28;20026;-70
2022/08/01 01:29:14;;;;;;;9.32;4.95;;;19.20;99.90;;;;;;4975192;28;20035;-69
2022/08/01 01:31:43;;;;;;;;;;;19.30;99.90;;;;;;4975822;28;20046;-69
2022/08/01 01:34:11;;;;;;;13.93;5.00;;;19.30;99.90;;;;;;4974977;28;19941;-68
2022/08/01 01:36:37;;;;;;;14.88;5.43;;;19.30;99.90;;;;;;4975385;28;20022;-68
2022/08/01 01:39:03;;;;;;;10.95;5.40;;;19.20;99.90;;;;;;4974887;28;20050;-70
2022/08/01 01:41:30;;;;;;;13.30;5.25;;;19.30;99.90;;;;;;4975099;28;20019;-70
2022/08/01 01:43:57;;;;;;;10.10;4.93;;;19.20;99.90;;;;;;4973507;28;20389;-69
2022/08/01 01:46:27;;;;;;;11.32;5.57;;;19.20;99.90;;;;;;4975003;28;20023;-70
2022/08/01 01:48:55;;;;;;;13.15;5.60;;;19.20;99.90;;;;;;4974593;28;20051;-68
2022/08/01 01:51:24;;;;;;;10.10;5.30;;;19.20;99.90;;;;;;4974818;28;20023;-70
2022/08/01 01:53:52;;;;;;;11.27;5.60;;;19.20;99.90;;;;;;4974524;28;20106;-70
2022/08/01 01:56:20;;;;;;;10.25;4.75;;;19.20;99.90;;;;;;4973589;28;20042;-69
2022/08/01 01:58:50;;;;;;;10.65;5.32;;;19.20;99.90;;;;;;4974585;28;20050;-69
2022/08/01 02:01:17;;;;;;;10.70;5.22;;;19.30;99.90;;;;;;4974541;28;20042;-68
2022/08/01 02:03:43;;;;;;;10.88;4.70;;;19.30;99.90;;;;;;4974691;28;20025;-70
2022/08/01 02:06:09;;;;;;;8.43;4.57;;;19.30;99.90;;;;;;4974503;28;20026;-69
2022/08/01 02:08:37;;;;;;;8.82;3.78;;;19.30;99.90;;;;;;4974547;28;20035;-68
2022/08/01 02:11:18;;;;;;;7.10;3.78;;;19.30;99.90;;;;;;4974358;28;20062;-71
2022/08/01 02:13:50;;;;;;;8.93;4.07;;;19.30;99.90;;;;;;4974195;28;20050;-69
2022/08/01 02:16:16;;;;;;;7.47;3.80;;;19.40;99.90;;;;;;4974522;28;20057;-68
2022/08/01 02:18:42;;;;;;;7.20;4.30;;;19.30;99.90;;;;;;4974153;28;20019;-67
2022/08/01 02:21:11;;;;;;;8.02;4.05;;;19.30;99.90;;;;;;4972869;28;20046;-69
2022/08/01 02:23:40;;;;;;;8.27;4.28;;;19.30;99.90;;;;;;4974384;28;20023;-70
2022/08/01 02:26:10;;;;;;;8.45;3.95;;;19.30;99.90;;;;;;4974144;28;20026;-68
2022/08/01 02:28:54;;;;;;;8.20;3.55;;;19.30;99.90;;;;;;4974270;28;20022;-70
2022/08/01 02:31:22;;;;;;;9.77;3.97;;;19.30;99.90;;;;;;4973859;28;20022;-69
2022/08/01 02:34:05;;;;;;;8.52;4.25;;;19.30;99.90;;;;;;4974235;28;20034;-70
2022/08/01 02:36:34;;;;;;;9.50;3.97;;;19.20;99.90;;;;;;4972301;28;20027;-69
2022/08/01 02:39:03;;;;;;;8.20;3.80;;;19.20;99.90;;;;;;4973774;28;20392;-68
2022/08/01 02:41:31;;;;;;;11.07;3.92;;;19.10;99.90;;;;;;4974273;28;20047;-69
2022/08/01 02:44:01;;;;;;;6.03;3.75;;;19.00;99.90;;;;;;4973630;28;20456;-68
2022/08/01 02:46:40;;;;;;;8.68;4.03;;;19.00;99.90;;;;;;4974056;28;20113;-68
2022/08/01 02:49:08;;;;;;;8.98;4.35;;;18.90;99.90;;;;;;4973933;28;20513;-68
2022/08/01 02:51:35;;;;;;;11.38;4.22;;;18.90;99.90;;;;;;4973802;28;20030;-70
2022/08/01 02:54:03;;;;;;;7.60;4.43;;;18.90;99.90;;;;;;4973850;28;20361;-69
2022/08/01 02:56:36;;;;;;;9.25;4.10;;;19.00;99.90;;;;;;4973371;28;20027;-68
2022/08/01 02:59:08;;;;;;;8.35;3.90;;;19.00;99.90;;;;;;4973664;28;20031;-69
2022/08/01 03:01:35;;;;;;;;;;;19.00;99.90;;;;;;4974261;28;20027;-68
2022/08/01 03:04:03;;;;;;;7.10;3.75;;;19.10;99.90;;;;;;4973739;28;19909;-68
2022/08/01 03:06:30;;;;;;;7.40;3.97;;;19.10;99.90;;;;;;4973714;28;20027;-69
2022/08/01 03:08:57;;;;;;;9.13;3.60;;;19.10;99.90;;;;;;4973792;28;20030;-70
2022/08/01 03:11:24;;;;;;;6.38;3.20;;;19.10;99.90;;;;;;4973637;28;20026;-69
2022/08/01 03:13:53;;;;;;;6.30;3.42;;;19.10;99.90;;;;;;4974068;28;20019;-70
2022/08/01 03:16:21;;;;;;;5.93;3.10;;;19.10;99.90;;;;;;4973252;28;20045;-70
2022/08/01 03:18:48;;;;;;;7.50;3.05;;;19.10;99.90;;;;;;4972138;28;20031;-68
2022/08/01 03:21:14;;;;;;;5.47;2.83;;;19.20;99.90;;;;;;4972169;28;20101;-70
2022/08/01 03:23:42;;;;;;;7.00;3.00;;;19.20;99.90;;;;;;4973442;28;20023;-71
2022/08/01 03:26:08;;;;;;;4.70;3.17;;;19.20;99.90;;;;;;4977209;28;20113;-71
2022/08/01 03:28:36;;;;;;;5.57;2.75;;;19.20;99.90;;;;;;4977761;28;20019;-71
2022/08/01 03:31:02;;;;;;;4.85;2.70;;;19.20;99.90;;;;;;4977697;28;20101;-68
2022/08/01 03:33:28;;;;;;;6.20;2.67;;;19.20;99.90;;;;;;4977482;28;20106;-69
2022/08/01 03:35:55;;;;;;;7.35;3.20;;;19.20;99.90;;;;;;4977430;28;20060;-68
2022/08/01 03:38:25;;;;;;;4.30;2.45;;;19.20;99.90;;;;;;4977324;28;20384;-68
2022/08/01 03:40:58;;;;;;;6.45;2.83;;;19.10;99.90;;;;;;4976883;28;20062;-68
2022/08/01 03:43:36;;;;;;;6.80;2.90;;;19.10;99.90;;;;;;4977071;28;20086;-68
2022/08/01 03:46:07;;;;;;;3.88;2.60;;;19.20;99.90;;;;;;4975827;28;20026;-68
2022/08/01 03:48:39;;;;;;;4.47;2.63;;;19.20;99.90;;;;;;4977203;28;20035;-68
2022/08/01 03:51:07;;;;;;;7.50;3.17;;;19.20;99.90;;;;;;4977395;28;20085;-67
2022/08/01 03:53:34;;;;;;;4.65;2.42;;;19.20;99.90;;;;;;4976872;28;20361;-69
2022/08/01 03:56:02;;;;;;;5.18;2.75;;;19.20;99.90;;;;;;4976866;28;20113;-69
2022/08/01 03:58:29;;;;;;;4.65;2.83;;;19.20;99.90;;;;;;4976647;28;20027;-69
2022/08/01 04:00:55;;;;;;;6.03;2.88;;;19.20;99.90;;;;;;4976884;28;20101;-70
2022/08/01 04:03:22;;;;;;;4.55;2.70;;;19.20;99.90;;;;;;4976746;28;20029;-70
2022/08/01 04:05:47;;;;;;;4.45;3.03;;;19.10;99.90;;;;;;4977038;28;20397;-70
2022/08/01 04:08:13;;;;;;;5.70;2.70;;;19.10;99.90;;;;;;4976689;28;20069;-69
2022/08/01 04:10:39;;;;;;;6.72;4.07;;;19.10;99.90;;;;;;4975387;28;20030;-70
2022/08/01 04:13:04;;;;;;;8.82;3.33;;;19.20;99.90;;;;;;4976967;28;20781;-68
2022/08/01 04:15:30;;;;;;;4.70;3.00;;;19.20;99.90;;;;;;4976742;28;20035;-68
2022/08/01 04:17:56;;;;;;;8.02;2.97;;;19.20;99.90;;;;;;4976906;28;20030;-68
2022/08/01 04:20:21;;;;;;;8.60;3.22;;;19.10;99.90;;;;;;4975996;28;20358;-69
2022/08/01 04:22:47;;;;;;;8.75;2.88;;;19.10;99.90;;;;;;4976109;28;20022;-68
2022/08/01 04:25:21;;;;;;;7.15;2.90;;;19.10;99.90;;;;;;4976427;28;20037;-69
2022/08/01 04:27:50;;;;;;;7.25;3.72;;;19.10;99.90;;;;;;4976199;28;20026;-69
2022/08/01 04:30:22;;;;;;;9.00;3.45;;;19.10;99.90;;;;;;4976324;28;20027;-71
2022/08/01 04:32:48;;;;;;;;;;;19.10;99.90;;;;;;4976305;28;20030;-69
2022/08/01 04:35:16;;;;;;;8.63;3.42;;;19.10;99.90;;;;;;4976022;28;19902;-68
2022/08/01 04:37:45;;;;;;;7.15;3.50;;;19.10;99.90;;;;;;4975998;28;20019;-70
2022/08/01 04:40:12;;;;;;;7.57;3.72;;;19.10;99.90;;;;;;4975955;28;20543;-71
2022/08/01 04:42:37;;;;;;;10.20;4.38;;;19.20;99.90;;;;;;4976073;28;20034;-70
2022/08/01 04:45:04;;;;;;;12.05;4.65;;;19.20;99.90;;;;;;4976115;28;20030;-70
2022/08/01 04:47:31;;;;;;;10.20;4.47;;;19.10;99.90;;;;;;4975852;28;20074;-67
2022/08/01 04:49:57;;;;;;;15.25;4.75;;;19.10;99.90;;;;;;4975674;28;20078;-68
2022/08/01 04:52:22;;;;;;;14.98;5.07;;;19.10;99.90;;;;;;4975855;28;20019;-69
2022/08/01 04:54:48;;;;;;;13.93;4.65;;;19.10;99.90;;;;;;4975976;28;20027;-68
2022/08/01 04:57:14;;;;;;;13.27;4.30;;;19.10;99.90;;;;;;4975889;28;20085;-69
2022/08/01 04:59:43;;;;;;;15.95;4.97;;;19.10;99.90;;;;;;4974473;28;20432;-69
2022/08/01 05:02:16;;;;;;;15.35;4.53;;;19.20;99.90;;;;;;4976144;28;20062;-70
2022/08/01 05:04:45;;;;;;;18.10;4.97;;;19.20;99.90;;;;;;4975957;28;20468;-69
2022/08/01 05:07:11;;;;;;;14.93;4.88;;;19.30;99.90;;;;;;4976053;28;20019;-68
2022/08/01 05:09:37;;;;;;;13.57;4.70;;;19.30;99.90;;;;;;4975908;28;20030;-68
2022/08/01 05:12:05;;;;;;;17.95;4.78;;;19.30;99.90;;;;;;4976026;28;20027;-68
2022/08/01 05:14:31;;;;;;;18.02;5.13;;;19.30;99.90;;;;;;4975774;28;20022;-68
2022/08/01 05:16:59;;;;;;;17.90;4.68;;;19.20;99.90;;;;;;4975317;28;20073;-70
2022/08/01 05:19:25;;;;;;;17.73;4.85;;;19.20;99.90;;;;;;4975483;28;20030;-70
2022/08/01 05:21:50;;;;;;;14.65;4.32;;;19.20;99.90;;;;;;4975610;28;20074;-70
2022/08/01 05:24:16;;;;;;;14.90;4.53;;;19.20;99.90;;;;;;4975598;28;20042;-69
2022/08/01 05:26:42;;;;;;;20.15;4.10;;;19.20;99.90;;;;;;4975538;28;20064;-70
2022/08/01 05:29:07;;;;;;;14.70;3.90;;;19.20;99.90;;;;;;4975551;28;20085;-68
2022/08/01 05:31:34;;;;;;;15.95;4.07;;;19.30;99.90;;;;;;4975615;28;20054;-67
2022/08/01 05:34:00;;;;;;;19.65;5.32;;;19.30;99.90;;;;;;4975607;28;20034;-68
2022/08/01 05:36:26;;;;;;;17.67;3.60;;;19.20;99.90;;;;;;4975244;28;20023;-70
2022/08/01 05:38:51;;;;;;;15.38;3.60;;;19.20;99.90;;;;;;4975224;28;20054;-69
2022/08/01 05:41:17;;;;;;;18.88;3.78;;;19.10;99.90;;;;;;4974958;28;20063;-68
2022/08/01 05:43:42;;;;;;;17.98;3.63;;;19.10;99.90;;;;;;4975445;28;20123;-68
2022/08/01 05:46:08;;;;;;;15.57;3.15;;;19.20;99.90;;;;;;4974810;28;20397;-69
2022/08/01 05:48:33;;;;;;;19.65;3.78;;;19.20;99.90;;;;;;4975038;28;20111;-68
2022/08/01 05:50:59;;;;;;;15.15;2.95;;;19.20;99.90;;;;;;4974955;28;20085;-69
2022/08/01 05:53:25;;;;;;;18.70;4.15;;;19.20;99.90;;;;;;4973603;28;20097;-70
2022/08/01 05:55:51;;;;;;;15.90;3.30;;;19.20;99.90;;;;;;4975063;28;20030;-70
2022/08/01 05:58:16;;;;;;;14.77;2.63;;;19.20;99.90;;;;;;4974952;28;20045;-69
2022/08/01 06:00:42;;;;;;;12.18;2.65;;;19.20;99.90;;;;;;4974560;28;20077;-68
2022/08/01 06:03:07;;;;;;;11.07;2.78;;;19.20;99.90;;;;;;4974935;28;20026;-68
2022/08/01 06:05:33;;;;;;;13.45;3.15;;;19.20;99.90;;;;;;4974828;28;20077;-68
2022/08/01 06:07:58;;;;;;;20.67;3.70;;;19.20;99.90;;;;;;4974515;28;20033;-69
2022/08/01 06:10:24;;;;;;;13.43;2.88;;;19.30;99.90;;;;;;4974464;28;20114;-68
2022/08/01 06:12:49;;;;;;;13.55;3.47;;;19.40;99.90;;;;;;4974948;28;20106;-69
2022/08/01 06:15:15;;;;;;;11.38;2.97;;;19.40;99.90;;;;;;4974692;28;20031;-70
2022/08/01 06:17:41;;;;;;;10.88;2.67;;;19.50;99.90;;;;;;4974562;28;20054;-69
2022/08/01 06:20:07;;;;;;;12.15;3.20;;;19.60;99.90;;;;;;4973076;28;20069;-69
2022/08/01 06:22:32;;;;;;;20.70;3.55;;;19.70;99.90;;;;;;4974593;28;20134;-70
2022/08/01 06:24:58;;;;;;;11.30;2.67;;;19.80;99.90;;;;;;4974474;28;20516;-68
2022/08/01 06:27:27;;;;;;;17.63;2.50;;;20.20;99.90;;;;;;4974815;28;20045;-68
2022/08/01 06:29:56;;;;;;;17.55;3.20;;;20.30;99.90;;;;;;4974416;28;20030;-70
2022/08/01 06:32:26;;;;;;;16.85;3.35;;;20.50;99.90;;;;;;4974313;28;20109;-69
2022/08/01 06:34:52;;;;;;;13.30;2.28;;;20.60;99.90;;;;;;4974344;28;20030;-68
2022/08/01 06:37:17;;;;;;;10.50;2.13;;;20.60;99.90;;;;;;4974186;28;20483;-70
2022/08/01 06:39:43;;;;;;;11.82;2.85;;;20.60;99.90;;;;;;4974026;28;20118;-68
2022/08/01 06:42:09;;;;;;;13.82;2.25;;;20.50;99.90;;;;;;4973733;28;20480;-68
2022/08/01 06:44:34;;;;;;;7.63;2.20;;;20.40;99.90;;;;;;4974123;28;20019;-70
2022/08/01 06:47:00;;;;;;;10.82;2.35;;;20.30;99.90;;;;;;4974181;28;20356;-68
2022/08/01 06:49:25;;;;;;;10.48;2.58;;;20.30;99.90;;;;;;4973945;28;20465;-69
2022/08/01 06:51:51;;;;;;;13.52;2.42;;;20.30;99.90;;;;;;4973844;28;20027;-68
2022/08/01 06:54:17;;;;;;;10.20;2.85;;;20.30;99.90;;;;;;4972515;28;20029;-68
2022/08/01 06:56:42;;;;;;;9.23;2.03;;;20.30;99.90;;;;;;4974049;28;20093;-69
2022/08/01 06:59:08;;;;;;;13.60;2.42;;;20.60;99.90;;;;;;4972720;28;20041;-70
2022/08/01 07:01:34;;;;;;;12.68;2.28;;;21.00;99.90;;;;;;4973617;28;20372;-68
2022/08/01 07:04:00;;;;;;;15.20;2.78;;;21.80;99.90;;;;;;4974079;28;20027;-68
2022/08/01 07:06:25;;;;;;;10.23;2.13;;;22.80;99.90;;;;;;4972303;28;20027;-69
2022/08/01 07:08:52;;;;;;;11.63;2.17;;;23.60;99.90;;;;;;4972450;28;20022;-69
2022/08/01 07:11:19;;;;;;;9.43;1.88;;;23.60;99.90;;;;;;4973379;28;20093;-68
2022/08/01 07:13:45;;;;;;;13.23;2.05;;;23.90;99.90;;;;;;4973284;28;20095;-69
2022/08/01 07:16:14;;;;;;;16.40;2.30;;;24.30;99.90;;;;;;4973606;28;20050;-69
2022/08/01 07:18:40;;;;;;;12.40;2.30;;;24.80;99.90;;;;;;4973939;28;20073;-68
2022/08/01 07:21:06;;;;;;;9.20;2.30;;;25.10;99.90;;;;;;4972207;28;20058;-68
2022/08/01 07:23:32;;;;;;;11.27;2.00;;;25.20;99.90;;;;;;4973710;28;20389;-68
2022/08/01 07:25:58;;;;;;;10.18;1.83;;;25.10;99.80;;;;;;4972472;28;20026;-71
2022/08/01 07:28:24;;;;;;;14.15;2.33;;;24.80;99.90;;;;;;4972875;28;20030;-69
2022/08/01 07:30:50;;;;;;;13.25;2.40;;;24.90;99.90;;;;;;4972048;28;20031;-70
2022/08/01 07:33:15;;;;;;;10.93;2.10;;;24.80;99.90;;;;;;4972412;28;20023;-69
2022/08/01 07:35:41;;;;;;;15.32;2.45;;;24.70;99.90;;;;;;4975520;28;20030;-70
2022/08/01 07:38:07;;;;;;;8.38;1.88;;;24.50;99.90;;;;;;4989694;28;20029;-70
2022/08/01 07:40:33;;;;;;;13.30;2.40;;;24.60;99.90;;;;;;4991251;28;20027;-68
2022/08/01 07:42:59;;;;;;;9.85;1.95;;;24.60;99.90;;;;;;4987474;28;20691;-68
2022/08/01 07:45:26;;;;;;;5.50;1.50;;;24.50;99.90;;;;;;4982514;28;20030;-69
2022/08/01 07:47:52;;;;;;;16.40;2.45;;;24.10;99.90;;;;;;4986273;28;20065;-69
2022/08/01 07:50:17;;;;;;;7.90;1.55;;;23.90;99.90;;;;;;4986357;28;20053;-67
2022/08/01 07:52:43;;;;;;;13.25;2.00;;;23.70;99.90;;;;;;4986115;28;20360;-68
2022/08/01 07:55:09;;;;;;;10.27;1.90;;;23.60;99.90;;;;;;4987177;28;20014;-67
2022/08/01 07:57:35;;;;;;;16.35;2.28;;;23.60;99.90;;;;;;4971910;28;20069;-68
2022/08/01 08:00:03;;;;;;;12.27;2.50;;;23.60;99.90;;;;;;4968450;28;20442;-67
2022/08/01 08:02:28;;;;;;;11.35;1.92;;;23.70;99.90;;;;;;4972589;28;20130;-69
2022/08/01 08:04:54;;;;;;;10.48;1.95;;;23.90;99.90;;;;;;4972672;28;20465;-67
2022/08/01 08:07:21;;;;;;;12.88;2.08;;;24.10;99.70;;;;;;4971796;28;20038;-68
2022/08/01 08:09:47;;;;;;;10.65;2.08;;;24.30;99.50;;;;;;4972302;28;20030;-67
2022/08/01 08:12:13;;;;;;;14.13;2.20;;;24.50;99.20;;;;;;4975363;28;20038;-70
2022/08/01 08:14:39;;;;;;;14.85;2.78;;;24.90;99.00;;;;;;4974953;28;20022;-69
2022/08/01 08:17:05;;;;;;;13.88;2.08;;;25.20;99.00;;;;;;4975754;28;20023;-67
2022/08/01 08:19:33;;;;;;;10.82;2.63;;;25.80;97.80;;;;;;4975437;28;20042;-70
2022/08/01 08:21:59;;;;;;;5.80;1.60;;;26.50;97.50;;;;;;4976325;28;20110;-69
2022/08/01 08:24:26;;;;;;;12.52;2.40;;;27.00;95.20;;;;;;4976455;28;20037;-67
2022/08/01 08:26:56;;;;;;;12.30;1.83;;;27.00;94.60;;;;;;4976011;28;20035;-68
2022/08/01 08:29:22;;;;;;;7.53;1.80;;;27.10;93.70;;;;;;4975406;28;20050;-68
2022/08/01 08:31:49;;;;;;;9.23;1.95;;;27.30;93.00;;;;;;4976527;28;20023;-70
2022/08/01 08:34:14;;;;;;;10.68;1.90;;;27.40;92.90;;;;;;4976560;28;20105;-70
2022/08/01 08:36:40;;;;;;;8.82;1.40;;;27.30;92.70;;;;;;4976138;28;20123;-67
2022/08/01 08:39:06;;;;;;;8.20;1.63;;;27.50;92.60;;;;;;4975512;28;20234;-71
2022/08/01 08:41:35;;;;;;;9.68;2.28;;;27.50;92.50;;;;;;4975507;28;20356;-68
2022/08/01 08:44:03;;;;;;;6.85;1.27;;;27.40;92.20;;;;;;4976516;28;20033;-68
2022/08/01 08:46:32;;;;;;;8.40;1.95;;;27.20;91.60;;;;;;4976311;28;20070;-70
2022/08/01 08:48:58;;;;;;;7.93;1.58;;;27.30;92.10;;;;;;4974806;28;20046;-68
2022/08/01 08:51:26;;;;;;;7.90;1.45;;;27.60;92.10;;;;;;4972773;28;20022;-70
2022/08/01 08:53:54;;;;;;;6.43;1.45;;;28.00;91.70;;;;;;4975930;28;20045;-70
2022/08/01 08:56:22;;;;;;;9.07;1.90;;;28.40;91.00;;;;;;4975222;28;20029;-68
2022/08/01 08:58:48;;;;;;;8.35;2.58;;;28.70;90.90;;;;;;4976091;28;20033;-67
2022/08/01 09:01:14;;;;;;;8.55;1.88;;;29.40;90.50;;;;;;4976039;28;20401;-68
2022/08/01 09:03:40;;;;;;;9.45;2.30;;;29.80;89.40;;;;;;4975622;28;20052;-68
2022/08/01 09:06:06;;;;;;;10.43;2.22;;;30.00;89.40;;;;;;4975707;28;20097;-68
2022/08/01 09:08:33;;;;;;;10.63;1.90;;;30.20;88.20;;;;;;4975934;28;20439;-70
2022/08/01 09:10:58;;;;;;;9.38;2.10;;;30.30;87.90;;;;;;4975727;28;20023;-67
2022/08/01 09:13:24;;;;;;;9.77;1.95;;;30.50;88.10;;;;;;4975113;28;20533;-67
2022/08/01 09:15:55;;;;;;;6.93;1.65;;;30.70;86.50;;;;;;4975398;28;20069;-68
2022/08/01 09:18:33;;;;;;;7.13;1.67;;;30.80;85.60;;;;;;4975837;28;20018;-67
2022/08/01 09:21:05;;;;;;;4.68;1.20;;;30.80;84.00;;;;;;4974667;28;20293;-67
2022/08/01 09:23:39;;;;;;;6.95;1.98;;;30.40;85.10;;;;;;4975444;28;20053;-67
2022/08/01 09:26:06;;;;;;;11.73;2.42;;;29.80;85.50;;;;;;4975290;28;20408;-67
2022/08/01 09:28:32;;;;;;;13.70;2.05;;;29.50;86.10;;;;;;4974002;28;20027;-68
2022/08/01 09:30:59;;;;;;;11.65;2.03;;;29.10;86.60;;;;;;4975563;28;20027;-67
2022/08/01 09:33:25;;;;;;;5.90;1.30;;;28.80;87.30;;;;;;4974939;28;20039;-69
2022/08/01 09:35:56;;;;;;;11.00;1.92;;;28.60;86.50;;;;;;4975441;28;20018;-67
2022/08/01 09:38:23;;;;;;;6.95;1.70;;;28.40;87.40;;;;;;4975337;28;20022;-69
2022/08/01 09:40:55;;;;;;;8.85;2.15;;;28.40;87.70;;;;;;4975109;28;20039;-68
2022/08/01 09:43:24;;;;;;;5.13;1.60;;;28.40;87.30;;;;;;4974919;28;20377;-68
2022/08/01 09:45:50;;;;;;;7.35;1.50;;;28.40;87.80;;;;;;4975049;28;20061;-68
2022/08/01 09:48:17;;;;;;;9.88;1.98;;;28.60;88.20;;;;;;4974097;28;20088;-69
2022/08/01 09:50:47;;;;;;;9.55;2.08;;;28.80;87.40;;;;;;4972309;28;20031;-70
2022/08/01 09:53:13;;;;;;;6.25;1.80;;;29.10;86.50;;;;;;4974904;28;20119;-67
2022/08/01 09:55:40;;;;;;;9.48;1.85;;;29.20;85.40;;;;;;4974657;28;20045;-67
2022/08/01 09:58:06;;;;;;;6.38;1.30;;;29.00;85.80;;;;;;4974228;28;20026;-67
2022/08/01 10:00:33;;;;;;;6.55;2.03;;;28.90;84.80;;;;;;4974742;28;20035;-67
2022/08/01 10:02:59;;;;;;;6.10;1.70;;;28.70;85.70;;;;;;4974847;28;20031;-68
2022/08/01 10:05:35;;;;;;;8.68;1.85;;;28.60;85.90;;;;;;4973528;28;20027;-67
2022/08/01 10:08:03;;;;;;;6.70;1.65;;;28.50;86.00;;;;;;4974672;28;20023;-69
2022/08/01 10:10:29;;;;;;;6.63;1.58;;;28.30;86.40;;;;;;4974858;28;20027;-68
2022/08/01 10:12:57;;;;;;;7.78;1.75;;;28.30;86.90;;;;;;4974419;28;20015;-69
2022/08/01 10:15:24;;;;;;;7.90;1.75;;;28.20;85.80;;;;;;4974664;28;20034;-67
2022/08/01 10:17:55;;;;;;;6.38;1.30;;;28.10;86.30;;;;;;4974000;28;20031;-68
2022/08/01 10:20:24;;;;;;;8.13;1.88;;;28.30;86.10;;;;;;4973218;28;20039;-67
2022/08/01 10:22:53;;;;;;;8.60;1.83;;;28.30;85.20;;;;;;4973187;28;20453;-70
2022/08/01 10:25:20;;;;;;;10.10;1.85;;;28.30;84.80;;;;;;4969557;28;20077;-68
2022/08/01 10:27:49;;;;;;;5.28;1.42;;;28.40;85.30;;;;;;4973252;28;20034;-68
2022/08/01 10:30:15;;;;;;;6.55;1.20;;;28.40;83.70;;;;;;4973276;28;20018;-68
2022/08/01 10:32:42;;;;;;;7.85;2.17;;;28.40;83.90;;;;;;4973871;28;20058;-67
2022/08/01 10:35:09;;;;;;;10.35;1.83;;;28.30;84.20;;;;;;4971432;28;20057;-67
2022/08/01 10:37:35;;;;;;;7.72;1.73;;;28.40;84.70;;;;;;4971977;28;20049;-70
2022/08/01 10:40:02;;;;;;;8.27;1.88;;;28.60;82.80;;;;;;4970165;28;20468;-68
2022/08/01 10:42:28;;;;;;;9.02;2.05;;;28.50;83.20;;;;;;4972426;28;20054;-68
2022/08/01 10:44:55;;;;;;;8.50;1.48;;;28.50;82.60;;;;;;4972778;28;20049;-69
2022/08/01 10:47:42;;;;;;;9.15;1.85;;;28.60;82.30;;;;;;4972683;28;20528;-69
2022/08/01 10:50:39;;;;;;;8.77;1.58;;;28.70;82.50;;;;;;4972258;28;20105;-70
2022/08/01 10:53:10;;;;;;;6.63;1.70;;;28.80;83.40;;;;;;4974062;28;20067;-68
2022/08/01 10:56:07;;;;;;;7.00;1.50;;;28.80;81.90;;;;;;4973996;28;20023;-68
2022/08/01 10:58:37;;;;;;;5.57;1.70;;;28.60;82.10;;;;;;4968928;28;20126;-70
2022/08/01 11:01:14;;;;;;;5.13;1.67;;;28.50;82.50;;;;;;4973797;28;20034;-67
2022/08/01 11:03:42;;;;;;;6.45;1.45;;;28.60;81.50;;;;;;4972993;28;20644;-69
2022/08/01 11:06:20;;;;;;;6.15;1.48;;;28.80;81.80;;;;;;4973364;28;20377;-68
2022/08/01 11:08:52;;;;;;;5.40;1.40;;;29.00;81.10;;;;;;4973808;28;20037;-67
2022/08/01 11:11:19;;;;;;;5.18;1.90;;;29.10;80.40;;;;;;4972247;28;20026;-70
2022/08/01 11:14:00;;;;;;;6.03;1.33;;;29.40;80.00;;;;;;4973671;28;20030;-69
2022/08/01 11:16:30;;;;;;;;;;;29.60;78.70;;;;;;4974140;28;20030;-67
2022/08/01 11:18:56;;;;;;;4.38;1.38;;;29.60;78.70;;;;;;4973805;28;19902;-70
2022/08/01 11:21:23;;;;;;;6.13;1.70;;;29.70;78.70;;;;;;4973611;28;20361;-67
2022/08/01 11:23:53;;;;;;;6.30;1.52;;;29.70;78.40;;;;;;4973815;28;20046;-67
2022/08/01 11:26:19;;;;;;;6.88;1.52;;;29.90;77.10;;;;;;4973221;28;20041;-67
2022/08/01 11:29:06;;;;;;;6.03;1.52;;;29.90;76.40;;;;;;4972918;28;20402;-69
2022/08/01 11:31:32;;;;;;;4.32;1.13;;;29.90;77.60;;;;;;4973024;28;20338;-67
2022/08/01 11:33:59;;;;;;;6.55;1.50;;;30.30;76.30;;;;;;4973256;28;20035;-67
2022/08/01 11:36:25;;;;;;;6.03;1.50;;;30.60;75.50;;;;;;4973125;28;20031;-69
2022/08/01 11:38:57;;;;;;;5.35;1.38;;;30.80;75.50;;;;;;4973500;28;20033;-70
2022/08/01 11:41:23;;;;;;;;;;;31.20;75.90;;;;;;4973914;28;20038;-68
2022/08/01 11:44:14;;;;;;;4.63;1.15;;;31.40;74.10;;;;;;4973447;28;19906;-69
2022/08/01 11:47:02;;;;;;;5.93;1.58;;;31.50;73.50;;;;;;4976337;28;20027;-69
2022/08/01 11:49:36;;;;;;;10.15;1.80;;;31.40;74.40;;;;;;4976982;28;20026;-68
2022/08/01 11:52:07;;;;;;;7.32;1.50;;;31.80;73.80;;;;;;4975276;28;20042;-67
2022/08/01 11:54:36;;;;;;;5.10;1.73;;;32.00;72.70;;;;;;4977016;28;20456;-68
2022/08/01 11:57:05;;;;;;;6.72;1.48;;;32.00;73.10;;;;;;4976273;28;20125;-67
2022/08/01 11:59:47;;;;;;;5.82;1.90;;;31.70;73.30;;;;;;4976786;28;20045;-70
2022/08/01 12:02:15;;;;;;;;;;;31.50;73.00;;;;;;4976877;28;20456;-70
2022/08/01 12:04:49;;;;;;;7.55;1.60;;;31.60;73.20;;;;;;4976832;28;19902;-67
2022/08/01 12:07:16;;;;;;;7.97;1.63;;;31.60;73.30;;;;;;4975926;28;20086;-68
2022/08/01 12:09:41;;;;;;;6.40;1.40;;;31.50;72.50;;;;;;4976783;28;20023;-67
2022/08/01 12:12:08;;;;;;;6.88;2.33;;;31.40;71.90;;;;;;4976720;28;20050;-68
2022/08/01 12:14:34;;;;;;;7.10;1.77;;;31.20;74.30;;;;;;4977074;28;20023;-68
2022/08/01 12:16:59;;;;;;;3.90;1.45;;;31.30;73.50;;;;;;4976783;28;20030;-70
2022/08/01 12:19:25;;;;;;;5.53;1.85;;;31.30;72.80;;;;;;4976649;28;20428;-68
2022/08/01 12:22:10;;;;;;;8.43;3.05;;;31.00;73.40;;;;;;4976832;28;20101;-70
2022/08/01 12:24:37;;;;;;;7.05;1.77;;;30.90;72.90;;;;;;4976617;28;20030;-70
2022/08/01 12:27:05;;;;;;;8.68;1.40;;;31.10;73.70;;;;;;4970695;28;20023;-67
2022/08/01 12:29:49;;;;;;;5.47;1.27;;;31.30;72.40;;;;;;4976448;28;20133;-68
2022/08/01 12:32:23;;;;;;;5.00;1.60;;;31.20;72.40;;;;;;4976327;28;20027;-68
2022/08/01 12:34:49;;;;;;;7.20;1.85;;;31.10;73.40;;;;;;4976296;28;20122;-68
2022/08/01 12:37:15;;;;;;;6.57;1.67;;;31.20;73.10;;;;;;4976360;28;20354;-67
2022/08/01 12:39:41;;;;;;;8.82;1.65;;;31.50;72.60;;;;;;4974955;28;20035;-67
2022/08/01 12:42:10;;;;;;;5.72;1.75;;;31.90;73.30;;;;;;4976103;28;20042;-70
2022/08/01 12:44:36;;;;;;;6.07;1.30;;;31.80;70.40;;;;;;4976205;28;20077;-69
2022/08/01 12:47:03;;;;;;;9.07;2.13;;;31.50;71.40;;;;;;4975614;28;20472;-68
2022/08/01 12:49:29;;;;;;;6.03;2.08;;;31.30;71.80;;;;;;4976240;28;20023;-67